Terminal Aerodrome Forecast
Issued by NWS Quad Cities IA IL

Home | Current Version | Previous Version | Text Only | Print | Product List | Glossary On
Versions: 1 2 3 4 5 6 7 8 9 10 11 12 13 14 15 16 17 18 19 20
000
FTUS43 KDVN 191100
TAFMLI
TAF
KMLI 191128Z 1912/2012 00000KT P6SM BKN050
      TEMPO 1912/1914 6SM BR SCT050
     FM192200 14004KT P6SM OVC025
     FM200900 12003KT 5SM BR OVC015=

USA.gov is the U.S. government's official web portal to all federal, state and local government web resources and services.